Time;durP1;ratioP1;P1;durP2;ratioP2;P2;SDS_P1;SDS_P2;PMS_P1;PMS_P2;Temp;Humidity;BMP_temperature;BMP_pressure;BME280_temperature;BME280_humidity;BME280_pressure;Samples;Min_cycle;Max_cycle;Signal;HPM_P1;HPM_P2
2021/07/12 00:00:50;;;;;;;18.47;15.23;;;13.60;99.90;;;;;;5038405;28;20465;-78
2021/07/12 00:03:17;;;;;;;17.67;15.80;;;13.60;99.90;;;;;;5047009;28;20461;-78
2021/07/12 00:05:44;;;;;;;16.10;14.40;;;13.70;99.90;;;;;;5042645;28;20482;-78
2021/07/12 00:08:11;;;;;;;16.90;14.73;;;13.60;99.90;;;;;;5036021;28;20566;-76
2021/07/12 00:10:38;;;;;;;17.00;15.30;;;13.60;99.90;;;;;;5038522;28;20870;-77
2021/07/12 00:13:05;;;;;;;17.37;15.57;;;13.60;99.90;;;;;;5039028;28;20450;-77
2021/07/12 00:15:34;;;;;;;16.03;14.43;;;13.60;99.90;;;;;;5037939;28;21100;-77
2021/07/12 00:18:01;;;;;;;15.30;13.47;;;13.60;99.90;;;;;;5038661;28;20450;-77
2021/07/12 00:20:28;;;;;;;16.20;14.33;;;13.50;99.90;;;;;;5044430;28;20947;-78
2021/07/12 00:22:57;;;;;;;17.57;15.87;;;13.50;99.90;;;;;;5038964;28;20450;-77
2021/07/12 00:25:25;;;;;;;18.70;16.90;;;13.50;99.90;;;;;;5037804;28;20460;-77
2021/07/12 00:27:52;;;;;;;17.00;15.30;;;13.50;99.90;;;;;;5048578;28;20954;-77
2021/07/12 00:30:21;;;;;;;20.10;16.43;;;13.50;99.90;;;;;;5037270;28;20453;-77
2021/07/12 00:32:53;;;;;;;17.90;16.30;;;13.50;99.90;;;;;;5037678;28;20454;-77
2021/07/12 00:35:20;;;;;;;16.90;15.20;;;13.40;99.90;;;;;;5039945;28;20455;-80
2021/07/12 00:37:47;;;;;;;15.83;14.30;;;13.40;99.90;;;;;;5038250;28;20457;-77
2021/07/12 00:40:17;;;;;;;16.77;15.07;;;13.40;99.90;;;;;;5035100;28;20601;-77
2021/07/12 00:42:44;;;;;;;16.53;14.90;;;13.40;99.90;;;;;;5039499;28;20475;-77
2021/07/12 00:45:13;;;;;;;17.27;15.60;;;13.40;99.90;;;;;;5027656;28;20477;-77
2021/07/12 00:47:40;;;;;;;16.27;14.67;;;13.40;99.90;;;;;;5033846;28;20472;-77
2021/07/12 00:50:11;;;;;;;16.20;14.20;;;13.40;99.90;;;;;;5028915;28;20450;-77
2021/07/12 00:52:38;;;;;;;16.70;13.63;;;13.30;99.90;;;;;;5033012;28;20939;-77
2021/07/12 00:55:14;;;;;;;19.13;16.27;;;13.30;99.90;;;;;;5027995;28;20526;-77
2021/07/12 00:57:41;;;;;;;17.00;15.43;;;13.30;99.90;;;;;;5040832;28;20445;-77
2021/07/12 01:00:10;;;;;;;16.20;14.50;;;13.30;99.90;;;;;;5035883;28;20849;-78
2021/07/12 01:02:37;;;;;;;15.17;13.77;;;13.10;99.90;;;;;;5031131;28;20455;-78
2021/07/12 01:05:05;;;;;;;15.13;13.73;;;13.10;99.90;;;;;;5034174;28;20470;-76
2021/07/12 01:07:34;;;;;;;16.77;15.07;;;13.10;99.90;;;;;;5028788;28;20538;-77
2021/07/12 01:10:01;;;;;;;15.67;14.00;;;13.20;99.90;;;;;;5029479;28;21025;-77
2021/07/12 01:12:34;;;;;;;15.47;13.97;;;13.20;99.90;;;;;;5031135;28;20448;-77
2021/07/12 01:15:06;;;;;;;15.40;13.83;;;13.10;99.90;;;;;;5026156;28;20441;-76
2021/07/12 01:17:40;;;;;;;15.17;13.70;;;13.10;99.90;;;;;;5033480;28;20534;-78
2021/07/12 01:20:35;;;;;;;16.07;14.47;;;13.10;99.90;;;;;;5037774;28;20453;-77
2021/07/12 01:23:20;;;;;;;15.77;14.17;;;13.10;99.90;;;;;;5043122;28;20504;-79
2021/07/12 01:26:26;;;;;;;15.67;14.17;;;13.00;99.90;;;;;;5041255;28;20499;-77
2021/07/12 01:29:11;;;;;;;15.67;13.77;;;12.90;99.90;;;;;;5036297;28;20811;-77
2021/07/12 01:32:09;;;;;;;15.00;13.50;;;12.90;99.90;;;;;;5058248;28;20568;-77
2021/07/12 01:34:42;;;;;;;15.60;14.20;;;12.80;99.90;;;;;;5035298;28;20472;-77
2021/07/12 01:37:17;;;;;;;15.23;13.30;;;12.80;99.90;;;;;;5035414;28;21089;-77
2021/07/12 01:39:48;;;;;;;17.03;15.17;;;12.80;99.90;;;;;;5042765;28;20463;-77
2021/07/12 01:42:21;;;;;;;15.63;14.00;;;12.70;99.90;;;;;;5041513;28;20459;-78
2021/07/12 01:44:58;;;;;;;16.33;14.50;;;12.70;99.90;;;;;;5038576;28;20459;-77
2021/07/12 01:47:36;;;;;;;13.87;12.53;;;12.60;99.90;;;;;;5035469;28;20441;-77
2021/07/12 01:50:10;;;;;;;13.97;12.67;;;12.60;99.90;;;;;;5039398;28;20455;-77
2021/07/12 01:52:42;;;;;;;14.10;12.07;;;12.60;99.90;;;;;;5031906;28;20456;-78
2021/07/12 01:55:16;;;;;;;14.10;12.77;;;12.60;99.90;;;;;;5042992;28;21029;-77
2021/07/12 01:57:50;;;;;;;12.60;11.30;;;12.50;99.90;;;;;;5039178;28;20461;-77
2021/07/12 02:00:19;;;;;;;13.13;11.93;;;12.50;99.90;;;;;;5031266;28;20551;-77
2021/07/12 02:02:50;;;;;;;13.27;11.97;;;12.50;99.90;;;;;;5026422;28;20987;-76
2021/07/12 02:05:21;;;;;;;12.10;11.00;;;12.50;99.90;;;;;;5033111;28;20518;-77
2021/07/12 02:07:50;;;;;;;13.03;11.70;;;12.40;99.90;;;;;;5038929;28;20463;-77
2021/07/12 02:10:19;;;;;;;13.00;11.70;;;12.40;99.90;;;;;;5029647;28;20457;-77
2021/07/12 02:12:49;;;;;;;13.70;12.40;;;12.40;99.90;;;;;;5036687;28;20475;-77
2021/07/12 02:15:16;;;;;;;12.13;11.10;;;12.50;99.90;;;;;;5028279;28;20526;-77
2021/07/12 02:17:44;;;;;;;14.27;12.70;;;12.40;99.90;;;;;;5043406;28;20500;-78
2021/07/12 02:20:12;;;;;;;25.40;12.63;;;12.50;99.90;;;;;;5035940;28;20862;-78
2021/07/12 02:22:42;;;;;;;21.13;11.87;;;12.40;99.90;;;;;;5036209;28;20921;-78
2021/07/12 02:25:12;;;;;;;30.47;13.07;;;12.40;99.90;;;;;;5032653;28;20468;-77
2021/07/12 02:27:39;;;;;;;14.57;12.80;;;12.40;99.90;;;;;;5035933;28;20450;-77
2021/07/12 02:30:08;;;;;;;33.97;14.20;;;12.30;99.90;;;;;;5037874;28;20471;-77
2021/07/12 02:32:37;;;;;;;25.40;14.07;;;12.30;99.90;;;;;;5033582;28;20518;-77
2021/07/12 02:35:06;;;;;;;30.70;15.50;;;12.30;99.90;;;;;;5045609;28;20643;-77
2021/07/12 02:37:37;;;;;;;21.70;15.40;;;12.30;99.90;;;;;;5040877;28;20465;-77
2021/07/12 02:40:07;;;;;;;16.73;14.90;;;12.30;99.90;;;;;;5041139;28;20814;-78
2021/07/12 02:42:35;;;;;;;17.23;14.23;;;12.30;99.90;;;;;;5044084;28;20476;-78
2021/07/12 02:45:02;;;;;;;18.07;15.07;;;12.30;99.90;;;;;;5041368;28;20461;-77
2021/07/12 02:47:29;;;;;;;20.10;14.67;;;12.30;99.90;;;;;;5043272;28;20486;-77
2021/07/12 02:49:56;;;;;;;19.43;15.50;;;12.30;99.90;;;;;;5036943;28;20477;-77
2021/07/12 02:52:26;;;;;;;23.03;15.13;;;12.40;99.90;;;;;;5043281;28;20882;-78
2021/07/12 02:54:58;;;;;;;54.90;17.70;;;12.30;99.90;;;;;;5036119;28;20496;-77
2021/07/12 02:57:27;;;;;;;51.57;18.60;;;12.40;99.90;;;;;;5025494;28;20442;-78
2021/07/12 02:59:54;;;;;;;23.40;17.10;;;12.30;99.90;;;;;;5023149;28;20460;-78
2021/07/12 03:02:21;;;;;;;26.73;16.60;;;12.30;99.90;;;;;;5030881;28;20894;-78
2021/07/12 03:04:48;;;;;;;20.97;15.77;;;12.40;99.90;;;;;;5037376;28;20476;-77
2021/07/12 03:07:20;;;;;;;31.10;16.30;;;12.40;99.90;;;;;;5029368;28;20484;-77
2021/07/12 03:09:50;;;;;;;20.90;15.87;;;12.40;99.90;;;;;;5027741;28;20493;-77
2021/07/12 03:12:25;;;;;;;21.07;15.60;;;12.40;99.90;;;;;;5031648;28;20452;-78
2021/07/12 03:15:02;;;;;;;22.00;16.07;;;12.40;99.90;;;;;;5033587;28;20461;-79
2021/07/12 03:17:30;;;;;;;21.37;15.83;;;12.40;99.90;;;;;;5036619;28;20471;-78
2021/07/12 03:19:59;;;;;;;21.83;17.17;;;12.50;99.90;;;;;;5030447;28;21249;-76
2021/07/12 03:22:27;;;;;;;21.13;16.27;;;12.60;99.90;;;;;;5034501;28;20530;-77
2021/07/12 03:24:57;;;;;;;29.00;17.30;;;12.60;99.90;;;;;;5042616;28;20455;-77
2021/07/12 03:27:27;;;;;;;25.50;16.67;;;12.70;99.90;;;;;;5044421;28;20466;-78
2021/07/12 03:29:57;;;;;;;26.40;16.73;;;12.70;99.90;;;;;;5043960;28;20483;-78
2021/07/12 03:32:26;;;;;;;25.80;16.63;;;12.70;99.90;;;;;;5039948;28;20544;-77
2021/07/12 03:34:54;;;;;;;18.03;15.30;;;12.70;99.90;;;;;;5042340;28;20537;-77
2021/07/12 03:37:22;;;;;;;20.40;16.10;;;12.60;99.90;;;;;;5042385;28;20449;-77
2021/07/12 03:39:49;;;;;;;18.33;13.90;;;12.60;99.90;;;;;;5046371;28;20544;-77
2021/07/12 03:42:18;;;;;;;27.83;15.13;;;12.70;99.90;;;;;;5043977;28;20549;-77
2021/07/12 03:44:46;;;;;;;19.27;14.07;;;12.70;99.90;;;;;;5042993;28;20549;-77
2021/07/12 03:47:25;;;;;;;19.57;13.17;;;12.70;99.90;;;;;;5039398;28;20480;-77
2021/07/12 03:49:52;;;;;;;23.73;13.20;;;12.70;99.90;;;;;;5039304;28;20456;-77
2021/07/12 03:52:21;;;;;;;18.00;13.07;;;12.70;99.90;;;;;;5040727;28;20811;-77
2021/07/12 03:54:48;;;;;;;17.20;11.80;;;12.70;99.90;;;;;;5043715;28;20538;-77
2021/07/12 03:57:15;;;;;;;18.93;11.20;;;12.70;99.90;;;;;;5039918;28;20442;-78
2021/07/12 03:59:42;;;;;;;17.03;11.87;;;12.60;99.90;;;;;;5042111;28;20505;-77
2021/07/12 04:02:09;;;;;;;15.40;10.97;;;12.60;99.90;;;;;;5036910;28;20454;-77
2021/07/12 04:04:37;;;;;;;13.40;11.80;;;12.60;99.90;;;;;;5042453;28;20514;-76
2021/07/12 04:07:04;;;;;;;12.93;10.83;;;12.60;99.90;;;;;;5040735;28;20465;-77
2021/07/12 04:09:31;;;;;;;12.20;11.00;;;12.60;99.90;;;;;;5043666;28;20475;-77
2021/07/12 04:11:58;;;;;;;12.97;11.40;;;12.80;99.90;;;;;;5045092;28;20450;-79
2021/07/12 04:14:25;;;;;;;11.50;10.20;;;12.80;99.90;;;;;;5042400;28;20449;-78
2021/07/12 04:16:52;;;;;;;49.67;11.13;;;12.80;99.90;;;;;;5045972;28;20469;-78
2021/07/12 04:19:19;;;;;;;42.20;10.87;;;12.70;99.90;;;;;;5043645;28;20550;-77
2021/07/12 04:21:47;;;;;;;39.60;12.30;;;12.60;99.90;;;;;;5038326;28;20519;-77
2021/07/12 04:24:14;;;;;;;36.90;12.30;;;12.60;99.90;;;;;;5038189;28;20523;-77
2021/07/12 04:26:41;;;;;;;19.13;11.73;;;12.70;99.90;;;;;;5037663;28;21240;-77
2021/07/12 04:29:08;;;;;;;29.33;12.30;;;12.90;99.90;;;;;;5046664;28;20470;-76
2021/07/12 04:31:35;;;;;;;30.67;11.60;;;13.00;99.90;;;;;;5041608;28;20479;-78
2021/07/12 04:34:02;;;;;;;45.60;12.07;;;13.10;99.90;;;;;;5044469;28;20519;-78
2021/07/12 04:36:29;;;;;;;59.37;12.83;;;13.20;99.90;;;;;;5044824;28;21042;-77
2021/07/12 04:39:00;;;;;;;71.70;12.27;;;13.30;99.90;;;;;;5051088;28;20445;-78
2021/07/12 04:41:27;;;;;;;37.93;10.93;;;13.40;99.90;;;;;;5049780;28;20455;-78
2021/07/12 04:43:53;;;;;;;19.77;10.90;;;13.50;99.90;;;;;;5034678;28;20446;-77
2021/07/12 04:46:20;;;;;;;25.83;11.13;;;13.60;99.90;;;;;;5045897;28;20537;-76
2021/07/12 04:48:47;;;;;;;71.50;12.60;;;13.70;99.90;;;;;;5045036;28;20469;-77
2021/07/12 04:51:15;;;;;;;13.33;11.10;;;13.50;99.90;;;;;;5041907;28;20453;-77
2021/07/12 04:53:42;;;;;;;20.63;10.27;;;13.60;99.90;;;;;;5045357;28;20437;-78
2021/07/12 04:56:10;;;;;;;30.37;11.13;;;13.70;99.90;;;;;;5046404;28;20516;-77
2021/07/12 04:58:43;;;;;;;35.10;10.70;;;13.80;99.90;;;;;;5037132;28;20950;-77
2021/07/12 05:01:10;;;;;;;19.23;10.50;;;14.00;99.90;;;;;;5041429;28;20478;-77
2021/07/12 05:03:38;;;;;;;48.83;10.17;;;14.00;99.90;;;;;;5042679;28;20503;-78
2021/07/12 05:06:05;;;;;;;23.80;10.90;;;14.10;99.90;;;;;;5044460;28;20477;-78
2021/07/12 05:08:32;;;;;;;11.73;9.93;;;14.00;99.90;;;;;;5037418;28;20542;-77
2021/07/12 05:10:59;;;;;;;10.67;9.67;;;14.20;99.90;;;;;;5034329;28;20917;-78
2021/07/12 05:13:29;;;;;;;10.07;9.07;;;14.60;99.90;;;;;;5032023;28;20547;-78
2021/07/12 05:15:56;;;;;;;9.00;8.20;;;15.30;99.90;;;;;;5041746;28;20560;-78
2021/07/12 05:18:23;;;;;;;8.83;8.03;;;15.60;99.90;;;;;;5034920;28;20596;-78
2021/07/12 05:20:51;;;;;;;8.23;7.43;;;15.60;99.90;;;;;;5037411;28;20547;-78
2021/07/12 05:23:18;;;;;;;8.13;7.33;;;15.60;99.90;;;;;;5030831;28;20469;-78
2021/07/12 05:25:45;;;;;;;7.20;6.60;;;15.90;99.90;;;;;;5030955;28;21065;-78
2021/07/12 05:28:12;;;;;;;8.50;7.80;;;15.80;99.90;;;;;;5036480;28;20501;-79
2021/07/12 05:30:40;;;;;;;7.70;7.00;;;15.90;99.90;;;;;;5037725;28;20475;-78
2021/07/12 05:33:07;;;;;;;7.70;6.90;;;15.80;98.40;;;;;;5037761;28;20455;-78
2021/07/12 05:35:34;;;;;;;7.57;6.80;;;15.60;95.90;;;;;;5035034;28;20503;-78
2021/07/12 05:38:01;;;;;;;7.20;6.60;;;15.80;99.90;;;;;;5035320;28;20482;-78
2021/07/12 05:40:27;;;;;;;7.70;7.00;;;15.80;97.00;;;;;;5031988;28;20546;-78
2021/07/12 05:42:54;;;;;;;8.70;7.90;;;15.60;96.20;;;;;;5032407;28;20529;-78
2021/07/12 05:45:21;;;;;;;8.47;7.77;;;15.60;97.50;;;;;;5029847;28;20539;-78
2021/07/12 05:47:49;;;;;;;8.37;7.67;;;15.50;97.80;;;;;;5036820;28;20483;-78
2021/07/12 05:50:17;;;;;;;8.23;7.40;;;15.40;97.90;;;;;;5039473;28;20478;-82
2021/07/12 05:52:43;;;;;;;7.57;6.93;;;15.70;96.70;;;;;;5047289;28;20501;-80
2021/07/12 05:55:12;;;;;;;8.75;7.85;;;16.20;97.10;;;;;;5043765;28;20443;-79
2021/07/12 05:57:39;;;;;;;8.80;8.10;;;16.40;94.20;;;;;;5043932;28;20629;-79
2021/07/12 06:00:09;;;;;;;8.40;7.70;;;16.20;93.30;;;;;;5036413;28;20511;-79
2021/07/12 06:02:36;;;;;;;10.00;8.97;;;15.90;95.10;;;;;;5046085;28;20461;-80
2021/07/12 06:05:05;;;;;;;10.17;9.27;;;16.00;95.30;;;;;;5056128;28;20451;-79
2021/07/12 06:07:32;;;;;;;9.40;8.60;;;16.10;96.20;;;;;;5051992;28;20466;-79
2021/07/12 06:10:00;;;;;;;9.47;8.47;;;16.50;94.40;;;;;;5039286;28;20448;-78
2021/07/12 06:12:29;;;;;;;8.80;7.93;;;16.80;91.90;;;;;;5032591;28;20577;-78
2021/07/12 06:14:56;;;;;;;9.33;8.60;;;17.00;92.50;;;;;;5036777;28;20447;-78
2021/07/12 06:17:24;;;;;;;8.40;7.70;;;17.30;91.00;;;;;;5048291;28;20480;-78
2021/07/12 06:19:52;;;;;;;7.73;7.10;;;17.90;89.80;;;;;;5057766;28;20455;-78
2021/07/12 06:22:20;;;;;;;7.93;7.30;;;18.10;87.70;;;;;;5064507;28;20463;-78
2021/07/12 06:24:46;;;;;;;7.43;6.83;;;17.60;87.70;;;;;;5052383;28;20445;-78
2021/07/12 06:27:16;;;;;;;7.80;7.20;;;17.20;89.70;;;;;;5035626;28;20463;-78
2021/07/12 06:29:43;;;;;;;8.50;7.70;;;17.10;90.40;;;;;;5042770;28;20461;-77
2021/07/12 06:32:10;;;;;;;8.27;7.50;;;17.10;90.90;;;;;;5033889;28;20477;-78
2021/07/12 06:34:36;;;;;;;7.60;7.10;;;17.00;90.60;;;;;;5035662;28;20560;-79
2021/07/12 06:37:04;;;;;;;6.20;5.60;;;16.60;91.20;;;;;;5029266;28;20604;-77
2021/07/12 06:39:32;;;;;;;8.17;7.50;;;16.60;92.50;;;;;;5030944;28;21041;-77
2021/07/12 06:41:59;;;;;;;7.60;7.00;;;16.80;92.10;;;;;;5041222;28;20494;-78
2021/07/12 06:44:26;;;;;;;6.30;5.90;;;16.90;91.70;;;;;;5041589;28;20941;-78
2021/07/12 06:46:53;;;;;;;5.17;4.77;;;17.20;91.60;;;;;;5036270;28;20536;-76
2021/07/12 06:49:20;;;;;;;5.33;5.00;;;17.70;90.90;;;;;;5038783;28;20479;-78
2021/07/12 06:51:48;;;;;;;5.77;5.27;;;18.10;89.90;;;;;;5045013;28;20494;-77
2021/07/12 06:54:15;;;;;;;5.30;4.83;;;18.40;87.20;;;;;;5032436;28;20460;-78
2021/07/12 06:56:43;;;;;;;7.23;4.73;;;18.80;86.20;;;;;;5047995;28;20456;-78
2021/07/12 06:59:10;;;;;;;5.17;4.77;;;19.10;84.60;;;;;;5060186;28;20462;-79
2021/07/12 07:01:37;;;;;;;5.55;5.00;;;19.20;83.40;;;;;;5046994;28;20497;-85
2021/07/12 07:04:04;;;;;;;6.80;4.60;;;19.20;82.80;;;;;;5043038;28;20277;-82
2021/07/12 07:06:31;;;;;;;5.20;4.70;;;19.10;83.30;;;;;;5044204;28;22733;-83
2021/07/12 07:08:58;;;;;;;5.10;4.60;;;19.40;83.20;;;;;;5049914;28;20508;-81
2021/07/12 07:11:25;;;;;;;4.63;4.23;;;19.20;82.40;;;;;;5031196;28;20936;-77
2021/07/12 07:13:53;;;;;;;8.30;3.90;;;20.00;81.70;;;;;;5026185;28;20850;-77
2021/07/12 07:16:20;;;;;;;4.80;4.30;;;20.30;80.00;;;;;;5027605;28;20819;-77
2021/07/12 07:18:47;;;;;;;6.50;4.20;;;19.90;78.70;;;;;;5029011;28;20463;-77
2021/07/12 07:21:14;;;;;;;4.50;4.10;;;20.00;79.20;;;;;;5029546;28;20476;-77
2021/07/12 07:23:41;;;;;;;5.47;4.93;;;20.60;78.60;;;;;;5045695;28;22526;-77
2021/07/12 07:26:08;;;;;;;4.70;4.40;;;20.50;78.20;;;;;;5029888;28;20461;-77
2021/07/12 07:28:35;;;;;;;6.67;5.27;;;19.20;79.20;;;;;;5028510;28;20507;-76
2021/07/12 07:31:03;;;;;;;6.07;5.47;;;19.20;81.60;;;;;;5033020;28;20495;-77
2021/07/12 07:33:30;;;;;;;5.80;5.30;;;19.40;81.80;;;;;;5034184;28;20445;-77
2021/07/12 07:35:57;;;;;;;5.70;5.30;;;19.60;81.00;;;;;;5033479;28;20444;-78
2021/07/12 07:38:24;;;;;;;6.40;5.40;;;19.90;80.10;;;;;;5035923;28;20442;-78
2021/07/12 07:40:52;;;;;;;5.80;5.40;;;19.60;80.00;;;;;;5029924;28;20456;-78
2021/07/12 07:43:19;;;;;;;5.23;4.73;;;19.50;81.30;;;;;;5041721;28;20544;-77
2021/07/12 07:45:46;;;;;;;5.67;5.17;;;19.70;80.60;;;;;;5045595;28;20448;-77
2021/07/12 07:48:14;;;;;;;7.90;5.50;;;19.70;80.00;;;;;;5038720;28;20608;-78
2021/07/12 07:50:43;;;;;;;5.80;5.40;;;19.60;79.60;;;;;;5044541;28;20608;-78
2021/07/12 07:53:10;;;;;;;6.20;5.80;;;19.70;79.40;;;;;;5030978;28;20447;-75
2021/07/12 07:55:38;;;;;;;5.30;4.90;;;19.90;79.20;;;;;;5031727;28;20955;-75
2021/07/12 07:58:05;;;;;;;5.80;5.20;;;19.90;79.20;;;;;;5036062;28;20548;-75
2021/07/12 08:00:32;;;;;;;5.33;4.93;;;20.10;79.30;;;;;;5034896;28;20543;-75
2021/07/12 08:02:59;;;;;;;4.37;4.07;;;20.00;78.20;;;;;;5041493;28;20445;-76
2021/07/12 08:05:27;;;;;;;4.83;4.53;;;20.00;79.10;;;;;;5047482;28;20456;-76
2021/07/12 08:07:54;;;;;;;5.90;4.37;;;20.40;78.80;;;;;;5043065;28;20563;-76
2021/07/12 08:10:21;;;;;;;4.63;4.33;;;20.50;77.40;;;;;;5032140;28;20536;-77
2021/07/12 08:12:48;;;;;;;4.17;3.87;;;20.70;76.40;;;;;;5026626;28;20473;-76
2021/07/12 08:15:16;;;;;;;6.43;4.30;;;20.70;76.80;;;;;;5037706;28;20447;-76
2021/07/12 08:17:44;;;;;;;5.13;3.97;;;20.80;76.80;;;;;;5036845;28;21172;-76
2021/07/12 08:20:13;;;;;;;3.93;3.67;;;21.00;76.50;;;;;;5042777;28;20455;-76
2021/07/12 08:22:42;;;;;;;5.53;4.10;;;20.90;76.00;;;;;;5036102;28;20448;-77
2021/07/12 08:25:10;;;;;;;4.00;3.70;;;21.10;75.60;;;;;;5042948;28;20533;-76
2021/07/12 08:27:39;;;;;;;4.10;3.80;;;21.30;74.80;;;;;;5042703;28;20476;-78
2021/07/12 08:30:08;;;;;;;4.30;4.00;;;21.20;75.00;;;;;;5045558;28;21067;-78
2021/07/12 08:32:35;;;;;;;4.30;4.00;;;21.00;75.40;;;;;;5034319;28;20526;-78
2021/07/12 08:35:03;;;;;;;4.17;3.87;;;21.10;74.70;;;;;;5045786;28;20940;-78
2021/07/12 08:37:30;;;;;;;4.00;3.37;;;21.40;74.60;;;;;;5045533;28;20498;-78
2021/07/12 08:39:58;;;;;;;3.20;2.87;;;21.80;74.30;;;;;;5052519;28;20461;-78
2021/07/12 08:42:27;;;;;;;3.67;3.47;;;22.00;73.20;;;;;;5046526;28;20474;-78
2021/07/12 08:44:54;;;;;;;5.80;3.80;;;22.30;72.30;;;;;;5042176;28;20548;-77
2021/07/12 08:47:22;;;;;;;5.03;3.30;;;22.40;71.70;;;;;;5036338;28;20535;-78
2021/07/12 08:49:49;;;;;;;3.53;3.27;;;22.60;71.70;;;;;;5043181;28;20861;-76
2021/07/12 08:52:17;;;;;;;3.43;3.13;;;22.20;70.80;;;;;;5032908;28;20454;-77
2021/07/12 08:54:44;;;;;;;2.93;2.73;;;22.30;71.40;;;;;;5031524;28;20454;-77
2021/07/12 08:57:12;;;;;;;3.00;2.80;;;22.10;70.20;;;;;;5038377;28;20443;-78
2021/07/12 08:59:41;;;;;;;3.07;2.87;;;22.20;70.50;;;;;;5041928;28;20484;-78
2021/07/12 09:02:10;;;;;;;2.90;2.70;;;22.50;70.00;;;;;;5037778;28;20442;-77
2021/07/12 09:04:39;;;;;;;2.67;2.47;;;22.50;69.60;;;;;;5033864;28;20470;-77
2021/07/12 09:07:07;;;;;;;3.40;3.10;;;22.80;69.10;;;;;;5050597;28;20520;-79
2021/07/12 09:09:35;;;;;;;3.83;3.50;;;22.90;69.20;;;;;;5054341;28;20446;-78
2021/07/12 09:12:14;;;;;;;3.67;3.47;;;22.70;69.00;;;;;;5047059;28;20480;-78
2021/07/12 09:14:59;;;;;;;3.30;3.10;;;22.50;69.10;;;;;;5037223;28;20528;-78
2021/07/12 09:17:31;;;;;;;3.40;3.10;;;22.50;69.60;;;;;;5043909;28;20468;-78
2021/07/12 09:19:58;;;;;;;3.00;2.80;;;22.20;70.00;;;;;;5036688;28;20452;-78
2021/07/12 09:22:32;;;;;;;10.20;3.30;;;21.90;68.80;;;;;;5040203;28;20532;-80
2021/07/12 09:25:02;;;;;;;5.03;2.83;;;22.00;68.80;;;;;;5036100;28;20509;-79
2021/07/12 09:27:32;;;;;;;3.50;3.20;;;22.10;69.60;;;;;;5033133;28;20561;-76
2021/07/12 09:30:01;;;;;;;3.10;2.90;;;22.20;70.00;;;;;;5038050;28;20847;-79
2021/07/12 09:32:30;;;;;;;3.50;3.20;;;22.10;69.20;;;;;;5043136;28;20507;-78
2021/07/12 09:35:01;;;;;;;4.93;3.00;;;22.40;68.50;;;;;;5038625;28;20453;-77
2021/07/12 09:37:29;;;;;;;3.07;2.87;;;22.60;68.20;;;;;;5037707;28;20454;-78
2021/07/12 09:39:57;;;;;;;3.00;2.80;;;22.20;67.60;;;;;;5038933;28;20447;-78
2021/07/12 09:42:26;;;;;;;6.63;2.83;;;22.30;67.90;;;;;;5043679;28;20444;-80
2021/07/12 09:44:57;;;;;;;2.77;2.57;;;22.60;67.60;;;;;;5042282;28;20454;-78
2021/07/12 09:47:25;;;;;;;3.07;2.17;;;22.70;67.90;;;;;;5038230;28;21007;-78
2021/07/12 09:49:59;;;;;;;3.10;2.90;;;23.10;67.00;;;;;;5042541;28;20952;-77
2021/07/12 09:52:26;;;;;;;3.13;2.83;;;23.30;66.80;;;;;;5040659;28;20562;-79
2021/07/12 09:54:53;;;;;;;2.70;2.60;;;23.30;67.20;;;;;;5047751;28;20439;-80
2021/07/12 09:57:22;;;;;;;2.80;2.60;;;23.60;66.90;;;;;;5044642;28;20449;-80
2021/07/12 10:00:01;;;;;;;2.60;2.40;;;23.80;66.10;;;;;;5039718;28;20815;-78
2021/07/12 10:02:30;;;;;;;3.10;2.90;;;23.80;64.80;;;;;;5044701;28;20480;-78
2021/07/12 10:04:59;;;;;;;2.57;2.40;;;23.40;65.40;;;;;;5044472;28;20442;-78
2021/07/12 10:07:28;;;;;;;3.07;2.87;;;23.60;66.30;;;;;;5040005;28;21070;-79
2021/07/12 10:09:55;;;;;;;3.10;2.90;;;23.30;66.80;;;;;;5037260;28;20528;-79
2021/07/12 10:12:22;;;;;;;3.07;2.87;;;23.20;66.00;;;;;;5050177;28;20822;-79
2021/07/12 10:14:49;;;;;;;3.20;3.00;;;23.20;65.70;;;;;;5040004;28;20489;-78
2021/07/12 10:17:17;;;;;;;3.30;3.10;;;22.40;65.60;;;;;;5049784;28;20984;-78
2021/07/12 10:19:45;;;;;;;3.30;3.10;;;22.40;67.00;;;;;;5055789;28;20445;-78
2021/07/12 10:22:13;;;;;;;3.17;2.93;;;22.70;67.50;;;;;;5053272;28;20466;-77
2021/07/12 10:24:42;;;;;;;3.57;3.27;;;22.80;67.20;;;;;;5052475;28;20452;-80
2021/07/12 10:27:21;;;;;;;2.90;2.80;;;23.20;66.40;;;;;;5040334;28;20457;-79
2021/07/12 10:29:48;;;;;;;3.63;3.13;;;23.80;67.10;;;;;;5043657;28;20452;-78
2021/07/12 10:32:17;;;;;;;4.07;3.77;;;24.00;65.40;;;;;;5042290;28;20446;-77
2021/07/12 10:34:46;;;;;;;3.40;3.20;;;23.30;65.10;;;;;;5051146;28;20470;-79
2021/07/12 10:37:26;;;;;;;3.60;3.30;;;23.60;66.30;;;;;;5052624;28;20464;-78
2021/07/12 10:40:14;;;;;;;4.67;2.80;;;23.80;64.50;;;;;;5044432;28;20449;-78
2021/07/12 10:42:55;;;;;;;3.30;3.00;;;23.90;64.30;;;;;;5060792;28;20491;-79
2021/07/12 10:45:52;;;;;;;3.50;3.30;;;23.70;64.40;;;;;;5067400;28;20484;-79
2021/07/12 10:48:20;;;;;;;2.77;2.57;;;23.40;63.80;;;;;;5057828;28;20457;-79
2021/07/12 10:50:55;;;;;;;2.63;2.53;;;23.60;63.80;;;;;;5052237;28;20502;-78
2021/07/12 10:53:44;;;;;;;3.10;2.90;;;23.40;63.40;;;;;;5048088;28;20517;-80
2021/07/12 10:56:16;;;;;;;3.47;2.30;;;23.50;64.20;;;;;;5058159;28;20461;-79
2021/07/12 10:58:47;;;;;;;3.10;2.90;;;24.00;62.90;;;;;;5068272;28;20442;-79
2021/07/12 11:01:34;;;;;;;3.10;2.80;;;24.00;61.90;;;;;;5057710;28;20450;-79
2021/07/12 11:04:02;;;;;;;3.30;2.53;;;23.80;62.00;;;;;;5053520;28;20521;-80
2021/07/12 11:06:53;;;;;;;2.60;2.40;;;23.80;62.80;;;;;;5041724;28;20528;-79
2021/07/12 11:09:45;;;;;;;2.70;2.37;;;24.10;63.50;;;;;;5052706;28;20470;-79
2021/07/12 11:12:35;;;;;;;2.40;2.30;;;24.80;62.00;;;;;;5037794;28;20548;-79
2021/07/12 11:15:14;;;;;;;2.43;2.23;;;24.80;61.00;;;;;;5052873;28;20480;-81
2021/07/12 11:17:56;;;;;;;6.00;2.63;;;24.80;60.30;;;;;;5055089;28;20884;-81
2021/07/12 11:20:51;;;;;;;2.33;2.13;;;24.90;61.10;;;;;;5041677;28;20480;-78
2021/07/12 11:23:41;;;;;;;2.60;2.40;;;25.10;60.60;;;;;;5049473;28;20482;-79
2021/07/12 11:26:38;;;;;;;2.80;1.77;;;24.90;59.60;;;;;;5039330;28;20462;-77
2021/07/12 11:29:13;;;;;;;2.00;1.80;;;24.70;59.10;;;;;;5034622;28;20469;-77
2021/07/12 11:31:42;;;;;;;3.43;1.90;;;24.70;58.90;;;;;;5031856;28;20453;-78
2021/07/12 11:34:13;;;;;;;2.20;2.00;;;25.10;59.40;;;;;;5031078;28;20521;-77
2021/07/12 11:36:48;;;;;;;3.47;1.90;;;25.20;57.90;;;;;;5029879;28;21045;-77
2021/07/12 11:39:15;;;;;;;2.57;1.93;;;25.10;58.30;;;;;;5037645;28;20546;-77
2021/07/12 11:41:42;;;;;;;2.47;1.90;;;24.80;58.40;;;;;;5041922;28;20474;-78
2021/07/12 11:44:10;;;;;;;1.93;1.83;;;25.00;58.30;;;;;;5051882;28;20505;-77
2021/07/12 11:46:37;;;;;;;1.97;1.87;;;25.10;58.30;;;;;;5057205;28;20458;-78
2021/07/12 11:49:10;;;;;;;2.07;1.97;;;25.10;57.90;;;;;;5046909;28;20470;-81
2021/07/12 11:51:38;;;;;;;2.50;2.30;;;25.00;58.30;;;;;;5063644;28;20442;-84
2021/07/12 11:54:17;;;;;;;2.80;1.80;;;25.40;58.30;;;;;;5056154;28;20476;-84
2021/07/12 11:56:57;;;;;;;1.83;1.57;;;25.40;57.20;;;;;;5065040;28;20662;-78
2021/07/12 11:59:28;;;;;;;1.67;1.57;;;25.50;57.90;;;;;;5072076;28;20459;-80
2021/07/12 12:02:07;;;;;;;1.97;1.87;;;25.40;56.80;;;;;;5065858;28;20438;-81
2021/07/12 12:04:46;;;;;;;2.00;1.90;;;25.40;57.20;;;;;;5066594;28;20442;-81
2021/07/12 12:07:35;;;;;;;1.70;1.60;;;25.60;57.20;;;;;;5062649;28;20523;-81
2021/07/12 12:10:07;;;;;;;1.80;1.70;;;26.00;57.70;;;;;;5062776;28;20552;-82
2021/07/12 12:12:36;;;;;;;1.73;1.63;;;25.70;56.70;;;;;;5058329;28;20497;-82
2021/07/12 12:15:08;;;;;;;1.80;1.70;;;26.00;56.30;;;;;;5057028;28;20484;-82
2021/07/12 12:17:39;;;;;;;1.50;1.40;;;26.10;55.70;;;;;;5058111;28;20517;-82
2021/07/12 12:20:19;;;;;;;2.00;1.80;;;26.00;55.70;;;;;;5055677;28;20481;-80
2021/07/12 12:23:08;;;;;;;1.80;1.70;;;25.80;56.80;;;;;;5051173;28;20520;-82
2021/07/12 12:25:43;;;;;;;1.70;1.60;;;25.80;56.80;;;;;;5052829;28;20434;-83
2021/07/12 12:28:20;;;;;;;1.70;1.60;;;25.60;55.60;;;;;;5056003;28;20525;-80
2021/07/12 12:30:48;;;;;;;1.47;1.40;;;25.50;55.60;;;;;;5058938;28;20533;-83
2021/07/12 12:33:18;;;;;;;2.60;1.80;;;25.80;55.80;;;;;;5058213;28;20562;-82
2021/07/12 12:35:46;;;;;;;2.33;1.67;;;26.10;56.40;;;;;;5053939;28;20460;-82
2021/07/12 12:38:15;;;;;;;1.90;1.80;;;26.10;55.50;;;;;;5051335;28;20453;-81
2021/07/12 12:40:44;;;;;;;1.60;1.50;;;26.30;56.00;;;;;;5052604;28;20445;-81
2021/07/12 12:43:17;;;;;;;1.93;1.83;;;26.70;55.90;;;;;;5059651;28;20459;-83
2021/07/12 12:45:51;;;;;;;1.43;1.33;;;26.70;55.30;;;;;;5056473;28;20565;-82
2021/07/12 12:48:43;;;;;;;1.60;1.50;;;27.20;55.00;;;;;;5060882;28;20492;-85
2021/07/12 12:51:28;;;;;;;1.73;1.63;;;26.70;54.20;;;;;;5057270;28;20979;-82
2021/07/12 12:54:16;;;;;;;1.60;1.50;;;26.50;54.50;;;;;;5055195;28;20448;-81